Time;durP1;ratioP1;P1;durP2;ratioP2;P2;SDS_P1;SDS_P2;PMS_P1;PMS_P2;Temp;Humidity;BMP_temperature;BMP_pressure;BME280_temperature;BME280_humidity;BME280_pressure;Samples;Min_cycle;Max_cycle;Signal;HPM_P1;HPM_P2
2024/01/15 00:01:08;;;;;;;5.23;4.13;;;21.10;51.20;;;;;;5051547;28;20463;-80
2024/01/15 00:03:36;;;;;;;4.30;3.87;;;21.10;51.30;;;;;;5047247;28;20456;-80
2024/01/15 00:06:05;;;;;;;4.40;4.00;;;21.00;51.10;;;;;;5050166;28;20948;-77
2024/01/15 00:08:34;;;;;;;4.77;4.20;;;21.00;51.10;;;;;;5048042;28;20815;-78
2024/01/15 00:11:02;;;;;;;3.83;3.40;;;21.00;51.00;;;;;;5047523;28;20885;-80
2024/01/15 00:13:30;;;;;;;3.53;3.23;;;21.00;51.30;;;;;;5052434;28;20472;-80
2024/01/15 00:15:58;;;;;;;4.57;4.17;;;21.00;51.40;;;;;;5052604;28;20464;-80
2024/01/15 00:18:28;;;;;;;3.83;3.53;;;21.00;51.20;;;;;;5050222;28;20460;-81
2024/01/15 00:20:56;;;;;;;4.00;3.57;;;21.00;51.40;;;;;;5047461;28;20947;-80
2024/01/15 00:23:24;;;;;;;3.73;3.43;;;21.00;51.40;;;;;;5048702;28;21212;-79
2024/01/15 00:25:53;;;;;;;4.60;3.80;;;21.00;51.30;;;;;;5048135;28;20464;-78
2024/01/15 00:28:21;;;;;;;4.27;3.83;;;20.90;51.10;;;;;;5054027;28;20463;-78
2024/01/15 00:30:49;;;;;;;3.93;3.57;;;20.90;51.40;;;;;;5048074;28;20452;-78
2024/01/15 00:33:17;;;;;;;4.63;4.10;;;20.90;51.40;;;;;;5045469;28;20487;-79
2024/01/15 00:35:47;;;;;;;4.23;3.93;;;20.90;51.30;;;;;;5050274;28;20474;-79
2024/01/15 00:38:15;;;;;;;3.83;3.53;;;20.90;51.30;;;;;;5046778;28;20510;-80
2024/01/15 00:40:44;;;;;;;4.83;4.20;;;20.90;51.20;;;;;;5050764;28;20486;-78
2024/01/15 00:43:12;;;;;;;3.20;2.90;;;20.90;51.30;;;;;;5047365;28;20463;-78
2024/01/15 00:45:40;;;;;;;4.30;3.50;;;20.90;51.30;;;;;;5054396;28;20517;-78
2024/01/15 00:48:09;;;;;;;3.83;3.43;;;20.90;51.30;;;;;;5049996;28;20458;-77
2024/01/15 00:50:37;;;;;;;3.97;3.57;;;20.90;51.30;;;;;;5047567;28;20527;-77
2024/01/15 00:53:07;;;;;;;5.83;3.77;;;20.90;51.30;;;;;;5050567;28;21626;-77
2024/01/15 00:55:36;;;;;;;3.80;3.23;;;20.80;51.30;;;;;;5042347;28;20858;-75
2024/01/15 00:58:04;;;;;;;3.67;3.37;;;20.80;51.20;;;;;;5049417;28;20459;-78
2024/01/15 01:00:32;;;;;;;4.43;4.03;;;20.80;51.20;;;;;;5044527;28;20488;-76
2024/01/15 01:03:01;;;;;;;5.33;3.37;;;20.80;51.20;;;;;;5053330;28;20468;-77
2024/01/15 01:05:29;;;;;;;3.40;3.10;;;20.80;51.20;;;;;;5047585;28;20483;-78
2024/01/15 01:07:57;;;;;;;4.23;3.83;;;20.80;51.20;;;;;;5050145;28;20505;-78
2024/01/15 01:10:27;;;;;;;3.30;2.97;;;20.80;51.20;;;;;;5047059;28;20456;-76
2024/01/15 01:12:55;;;;;;;4.13;3.73;;;20.80;51.20;;;;;;5047342;28;20505;-78
2024/01/15 01:15:24;;;;;;;3.73;3.37;;;20.80;51.10;;;;;;5041998;28;20458;-78
2024/01/15 01:17:52;;;;;;;2.97;2.70;;;20.80;51.10;;;;;;5050258;28;20527;-78
2024/01/15 01:20:21;;;;;;;4.30;3.57;;;20.80;51.10;;;;;;5043971;28;21224;-78
2024/01/15 01:22:49;;;;;;;3.57;3.27;;;20.80;51.10;;;;;;5045711;28;20551;-79
2024/01/15 01:25:17;;;;;;;3.57;3.23;;;20.80;51.10;;;;;;5052201;28;20463;-77
2024/01/15 01:27:47;;;;;;;3.57;3.27;;;20.80;51.10;;;;;;5049517;28;20550;-77
2024/01/15 01:30:15;;;;;;;3.80;3.50;;;20.80;51.10;;;;;;5048760;28;20458;-76
2024/01/15 01:32:43;;;;;;;3.30;3.00;;;20.80;51.10;;;;;;5052817;28;20938;-78
2024/01/15 01:35:13;;;;;;;3.73;3.43;;;20.80;51.10;;;;;;5045396;28;21602;-77
2024/01/15 01:37:41;;;;;;;4.00;3.70;;;20.70;51.10;;;;;;5047864;28;20454;-74
2024/01/15 01:40:10;;;;;;;4.07;3.67;;;20.70;51.10;;;;;;5045632;28;20452;-75
2024/01/15 01:42:38;;;;;;;3.97;3.67;;;20.70;51.10;;;;;;5049214;28;20460;-77
2024/01/15 01:45:09;;;;;;;5.33;3.63;;;20.70;51.00;;;;;;5048475;28;20448;-77
2024/01/15 01:47:38;;;;;;;3.97;3.20;;;20.70;50.90;;;;;;5043616;28;20486;-77
2024/01/15 01:50:07;;;;;;;4.80;3.27;;;20.70;51.10;;;;;;5060659;28;20806;-77
2024/01/15 01:52:36;;;;;;;3.80;3.37;;;20.70;51.10;;;;;;5049773;28;20452;-76
2024/01/15 01:55:07;;;;;;;2.90;2.70;;;20.70;51.10;;;;;;5046015;28;20864;-77
2024/01/15 01:57:36;;;;;;;3.87;3.37;;;20.70;51.10;;;;;;5043684;28;20475;-75
2024/01/15 02:00:06;;;;;;;3.70;3.40;;;20.60;51.00;;;;;;5053676;28;20482;-77
2024/01/15 02:02:42;;;;;;;3.47;3.17;;;20.60;51.20;;;;;;5051717;28;20727;-78
2024/01/15 02:05:11;;;;;;;3.33;3.03;;;20.60;51.20;;;;;;5047590;28;20482;-76
2024/01/15 02:07:39;;;;;;;4.00;3.00;;;20.60;51.10;;;;;;5043766;28;20490;-79
2024/01/15 02:10:08;;;;;;;3.73;3.30;;;20.60;51.20;;;;;;5052090;28;20463;-78
2024/01/15 02:12:36;;;;;;;2.80;2.60;;;20.60;51.20;;;;;;5048490;28;20454;-78
2024/01/15 02:15:05;;;;;;;3.33;3.00;;;20.60;51.10;;;;;;5047263;28;20939;-76
2024/01/15 02:17:33;;;;;;;3.50;3.20;;;20.60;51.20;;;;;;5042078;28;20931;-78
2024/01/15 02:20:04;;;;;;;3.83;3.40;;;20.60;51.10;;;;;;5045348;28;20455;-78
2024/01/15 02:22:32;;;;;;;3.27;2.93;;;20.60;51.00;;;;;;5047277;28;20457;-74
2024/01/15 02:25:02;;;;;;;2.83;2.60;;;20.50;51.20;;;;;;5046176;28;20834;-78
2024/01/15 02:27:30;;;;;;;3.30;3.00;;;20.50;51.20;;;;;;5047275;28;20883;-79
2024/01/15 02:29:58;;;;;;;2.97;2.70;;;20.50;51.20;;;;;;5047763;28;21321;-79
2024/01/15 02:32:26;;;;;;;2.70;2.50;;;20.50;51.10;;;;;;5050274;28;20467;-80
2024/01/15 02:34:55;;;;;;;3.10;2.80;;;20.50;51.20;;;;;;5047517;28;20468;-81
2024/01/15 02:37:24;;;;;;;3.10;2.90;;;20.50;51.20;;;;;;5049405;28;20454;-80
2024/01/15 02:39:52;;;;;;;2.30;2.20;;;20.50;51.20;;;;;;5046911;28;20467;-79
2024/01/15 02:42:21;;;;;;;2.60;2.40;;;20.50;51.20;;;;;;5050881;28;20447;-79
2024/01/15 02:44:50;;;;;;;3.40;2.77;;;20.50;51.20;;;;;;5044032;28;20455;-77
2024/01/15 02:47:18;;;;;;;2.53;2.33;;;20.50;51.30;;;;;;5048306;28;20450;-77
2024/01/15 02:49:46;;;;;;;2.90;2.70;;;20.50;51.20;;;;;;5047905;28;20466;-76
2024/01/15 02:52:14;;;;;;;3.57;3.13;;;20.50;51.20;;;;;;5046272;28;20819;-79
2024/01/15 02:54:43;;;;;;;2.97;2.37;;;20.40;51.20;;;;;;5046103;28;20495;-79
2024/01/15 02:57:11;;;;;;;4.27;2.63;;;20.40;51.20;;;;;;5039215;28;20806;-76
2024/01/15 02:59:40;;;;;;;2.40;2.30;;;20.40;51.20;;;;;;5046961;28;20463;-79
2024/01/15 03:02:09;;;;;;;2.53;2.33;;;20.40;51.20;;;;;;5052284;28;20446;-79
2024/01/15 03:04:37;;;;;;;2.50;2.30;;;20.40;51.20;;;;;;5048994;28;20451;-79
2024/01/15 03:07:05;;;;;;;2.30;2.13;;;20.40;51.20;;;;;;5047932;28;20515;-76
2024/01/15 03:09:33;;;;;;;2.80;2.60;;;20.40;51.20;;;;;;5051523;28;20462;-78
2024/01/15 03:12:01;;;;;;;2.67;2.47;;;20.40;51.20;;;;;;5058083;28;20456;-79
2024/01/15 03:14:30;;;;;;;2.57;2.30;;;20.40;51.20;;;;;;5053451;28;20479;-79
2024/01/15 03:17:00;;;;;;;2.47;2.20;;;20.40;51.20;;;;;;5050163;28;20463;-77
2024/01/15 03:19:29;;;;;;;2.93;2.63;;;20.40;51.20;;;;;;5046611;28;20549;-79
2024/01/15 03:21:57;;;;;;;2.80;2.50;;;20.40;51.20;;;;;;5055183;28;20484;-79
2024/01/15 03:24:25;;;;;;;2.50;2.30;;;20.40;51.20;;;;;;5048059;28;20471;-77
2024/01/15 03:26:54;;;;;;;2.77;2.57;;;20.40;51.20;;;;;;5052943;28;20443;-79
2024/01/15 03:29:22;;;;;;;2.23;2.13;;;20.30;51.20;;;;;;5048958;28;20471;-79
2024/01/15 03:31:50;;;;;;;2.47;2.27;;;20.30;51.10;;;;;;5048390;28;20521;-78
2024/01/15 03:34:20;;;;;;;4.60;4.07;;;20.30;51.00;;;;;;5046261;28;20471;-74
2024/01/15 03:36:48;;;;;;;2.43;2.23;;;20.30;51.20;;;;;;5052289;28;20481;-78
2024/01/15 03:39:16;;;;;;;2.87;2.63;;;20.30;51.20;;;;;;5047588;28;20451;-77
2024/01/15 03:41:45;;;;;;;2.60;2.40;;;20.30;51.20;;;;;;5049844;28;21384;-78
2024/01/15 03:44:13;;;;;;;3.50;2.97;;;20.30;51.20;;;;;;5051580;28;20524;-78
2024/01/15 03:46:41;;;;;;;2.77;2.40;;;20.30;51.20;;;;;;5054217;28;21111;-78
2024/01/15 03:49:09;;;;;;;3.00;2.70;;;20.30;51.20;;;;;;5050375;28;20463;-76
2024/01/15 03:51:39;;;;;;;2.57;2.37;;;20.30;51.20;;;;;;5049426;28;21005;-78
2024/01/15 03:54:07;;;;;;;2.87;2.57;;;20.30;51.20;;;;;;5047883;28;20970;-75
2024/01/15 03:56:36;;;;;;;2.00;1.90;;;20.30;51.20;;;;;;5050661;28;20546;-77
2024/01/15 03:59:04;;;;;;;3.10;2.60;;;20.30;51.20;;;;;;5050362;28;20508;-76
2024/01/15 04:01:32;;;;;;;3.30;3.00;;;20.20;51.10;;;;;;5052848;28;20874;-79
2024/01/15 04:04:00;;;;;;;2.77;2.40;;;20.20;51.10;;;;;;5052381;28;20459;-79
2024/01/15 04:06:29;;;;;;;2.60;2.40;;;20.20;51.20;;;;;;5048092;28;20487;-79
2024/01/15 04:09:00;;;;;;;2.30;2.10;;;20.20;51.20;;;;;;5050164;28;20454;-79
2024/01/15 04:11:28;;;;;;;2.63;2.20;;;20.20;51.20;;;;;;5050362;28;20456;-80
2024/01/15 04:13:57;;;;;;;2.57;2.20;;;20.20;51.10;;;;;;5048465;28;20461;-79
2024/01/15 04:16:25;;;;;;;2.10;2.00;;;20.20;51.20;;;;;;5050111;28;20506;-79
2024/01/15 04:18:53;;;;;;;2.83;2.63;;;20.10;51.30;;;;;;5049969;28;20463;-77
2024/01/15 04:21:21;;;;;;;2.43;2.23;;;20.20;51.30;;;;;;5049919;28;20455;-80
2024/01/15 04:23:50;;;;;;;2.60;2.40;;;20.10;51.30;;;;;;5049345;28;20478;-80
2024/01/15 04:26:19;;;;;;;2.00;1.90;;;20.20;51.30;;;;;;5047301;28;20455;-81
2024/01/15 04:28:48;;;;;;;2.77;2.57;;;20.20;51.20;;;;;;5048158;28;20480;-76
2024/01/15 04:31:22;;;;;;;3.53;2.80;;;20.20;51.20;;;;;;5049573;28;20493;-75
2024/01/15 04:33:51;;;;;;;3.27;2.53;;;20.20;51.10;;;;;;5050251;28;20454;-81
2024/01/15 04:36:19;;;;;;;3.77;2.50;;;20.20;51.00;;;;;;5048038;28;20467;-80
2024/01/15 04:38:47;;;;;;;2.37;2.17;;;20.30;50.90;;;;;;5045872;28;20504;-73
2024/01/15 04:41:17;;;;;;;4.03;2.27;;;20.30;50.80;;;;;;5051064;28;20942;-80
2024/01/15 04:43:47;;;;;;;2.53;2.33;;;20.40;50.70;;;;;;5047537;28;20509;-81
2024/01/15 04:46:15;;;;;;;3.00;2.80;;;20.40;50.70;;;;;;5054071;28;20459;-80
2024/01/15 04:48:44;;;;;;;2.40;2.20;;;20.40;50.60;;;;;;5045891;28;20447;-78
2024/01/15 04:51:12;;;;;;;3.73;3.20;;;20.50;50.50;;;;;;5055120;28;20456;-81
2024/01/15 04:53:40;;;;;;;2.70;2.50;;;20.50;50.50;;;;;;5050721;28;20465;-77
2024/01/15 04:56:08;;;;;;;4.00;3.00;;;20.50;50.40;;;;;;5053035;28;20471;-81
2024/01/15 04:58:36;;;;;;;3.07;2.83;;;20.60;50.40;;;;;;5045863;28;20554;-74
2024/01/15 05:01:06;;;;;;;3.13;2.83;;;20.60;50.30;;;;;;5051984;28;20513;-78
2024/01/15 05:03:34;;;;;;;2.67;2.47;;;20.60;50.30;;;;;;5045114;28;21018;-81
2024/01/15 05:06:03;;;;;;;2.87;2.67;;;20.70;50.30;;;;;;5052961;28;20463;-76
2024/01/15 05:08:32;;;;;;;3.07;2.77;;;20.70;50.20;;;;;;5049184;28;20487;-81
2024/01/15 05:11:00;;;;;;;3.30;3.00;;;20.70;50.20;;;;;;5049467;28;20452;-80
2024/01/15 05:13:28;;;;;;;2.70;2.50;;;20.70;50.00;;;;;;5052991;28;20490;-80
2024/01/15 05:15:56;;;;;;;2.87;2.63;;;20.80;50.00;;;;;;5052027;28;20480;-80
2024/01/15 05:18:26;;;;;;;4.03;2.60;;;20.80;50.00;;;;;;5049111;28;21601;-80
2024/01/15 05:20:54;;;;;;;3.97;2.60;;;20.80;50.00;;;;;;5046693;28;20878;-79
2024/01/15 05:23:22;;;;;;;2.50;2.30;;;20.80;50.00;;;;;;5045996;28;20448;-77
2024/01/15 05:25:51;;;;;;;3.20;2.90;;;20.90;49.90;;;;;;5043305;28;20464;-79
2024/01/15 05:28:19;;;;;;;3.03;2.73;;;20.90;49.90;;;;;;5045610;28;20972;-80
2024/01/15 05:30:47;;;;;;;2.50;2.30;;;20.90;49.00;;;;;;5044019;28;20543;-78
2024/01/15 05:33:15;;;;;;;3.20;2.90;;;21.00;48.70;;;;;;5049688;28;20456;-81
2024/01/15 05:35:50;;;;;;;4.00;3.23;;;21.00;48.80;;;;;;5048748;28;20517;-75
2024/01/15 05:38:18;;;;;;;3.53;3.23;;;21.00;48.50;;;;;;5047769;28;20456;-81
2024/01/15 05:40:46;;;;;;;2.90;2.70;;;21.00;48.70;;;;;;5050862;28;21319;-80
2024/01/15 05:43:14;;;;;;;3.57;3.27;;;21.00;48.70;;;;;;5048515;28;20494;-81
2024/01/15 05:45:44;;;;;;;3.60;3.03;;;21.00;48.70;;;;;;5049607;28;20509;-80
2024/01/15 05:48:13;;;;;;;3.07;2.77;;;21.00;48.10;;;;;;5054792;28;20454;-79
2024/01/15 05:50:42;;;;;;;3.50;3.20;;;20.90;48.30;;;;;;5046717;28;21011;-77
2024/01/15 05:53:12;;;;;;;2.43;2.23;;;20.90;48.20;;;;;;5051075;28;20462;-77
2024/01/15 05:55:40;;;;;;;2.63;2.43;;;20.90;48.40;;;;;;5050614;28;20970;-82
2024/01/15 05:58:08;;;;;;;3.33;2.70;;;20.80;48.70;;;;;;5041286;28;20806;-80
2024/01/15 06:00:38;;;;;;;3.37;3.00;;;20.80;49.10;;;;;;5041724;28;20451;-83
2024/01/15 06:03:06;;;;;;;3.20;2.47;;;20.70;49.00;;;;;;5048471;28;20492;-80
2024/01/15 06:05:35;;;;;;;3.23;2.67;;;20.70;49.50;;;;;;5042377;28;20468;-80
2024/01/15 06:08:04;;;;;;;3.50;2.80;;;20.70;49.70;;;;;;5046019;28;20495;-86
2024/01/15 06:10:33;;;;;;;3.73;3.00;;;20.70;49.70;;;;;;5042323;28;20476;-81
2024/01/15 06:13:02;;;;;;;3.07;2.73;;;20.70;49.40;;;;;;5048195;28;20858;-81
2024/01/15 06:15:30;;;;;;;3.90;2.43;;;20.70;49.20;;;;;;5045672;28;20947;-81
2024/01/15 06:17:59;;;;;;;6.87;3.40;;;20.80;49.20;;;;;;5043879;28;20476;-80
2024/01/15 06:20:28;;;;;;;3.10;2.60;;;20.80;50.10;;;;;;5040562;28;20960;-82
2024/01/15 06:22:56;;;;;;;3.67;2.70;;;20.80;50.30;;;;;;5043852;28;20448;-82
2024/01/15 06:25:24;;;;;;;3.07;2.63;;;20.80;50.20;;;;;;5045367;28;20455;-82
2024/01/15 06:27:54;;;;;;;3.60;2.63;;;20.90;50.30;;;;;;5043543;28;20510;-82
2024/01/15 06:30:22;;;;;;;4.23;2.53;;;20.90;50.30;;;;;;5036801;28;20953;-81
2024/01/15 06:32:51;;;;;;;3.17;2.87;;;20.90;50.50;;;;;;5038105;28;20453;-83
2024/01/15 06:35:19;;;;;;;4.30;2.53;;;20.90;50.70;;;;;;5039741;28;20448;-83
2024/01/15 06:37:50;;;;;;;2.83;2.37;;;20.90;50.80;;;;;;5039535;28;20475;-82
2024/01/15 06:40:19;;;;;;;4.20;2.80;;;20.90;50.80;;;;;;5039517;28;20448;-81
2024/01/15 06:42:47;;;;;;;3.03;2.80;;;20.90;50.90;;;;;;5037230;28;20895;-78
2024/01/15 06:45:17;;;;;;;2.20;2.00;;;20.90;50.90;;;;;;5039496;28;20820;-81
2024/01/15 06:47:45;;;;;;;3.63;2.50;;;20.90;50.80;;;;;;5040149;28;21537;-81
2024/01/15 06:54:13;;;;;;;3.23;2.20;;;20.90;50.90;;;;;;5047024;28;20428;-82
2024/01/15 06:56:41;;;;;;;2.27;2.00;;;20.90;50.90;;;;;;5046926;28;20469;-81
2024/01/15 06:59:10;;;;;;;4.03;2.33;;;20.90;50.90;;;;;;5040342;28;20460;-82
2024/01/15 07:01:40;;;;;;;2.50;1.93;;;20.90;50.70;;;;;;5047631;28;20452;-82
2024/01/15 07:04:08;;;;;;;2.43;2.23;;;20.90;50.90;;;;;;5042970;28;20456;-82
2024/01/15 07:06:37;;;;;;;2.70;2.50;;;20.90;50.30;;;;;;5046673;28;20943;-82
2024/01/15 07:09:06;;;;;;;2.50;2.30;;;20.90;50.40;;;;;;5044043;28;20819;-79
2024/01/15 07:11:34;;;;;;;5.43;2.70;;;20.90;50.00;;;;;;5044120;28;20610;-83
2024/01/15 07:14:02;;;;;;;2.73;2.50;;;20.90;49.90;;;;;;5049274;28;20457;-83
2024/01/15 07:16:30;;;;;;;2.20;2.00;;;20.90;50.20;;;;;;5043877;28;20553;-82
2024/01/15 07:19:08;;;;;;;2.63;2.43;;;20.90;50.80;;;;;;5041366;28;20782;-81
2024/01/15 07:21:39;;;;;;;3.30;2.53;;;20.90;50.40;;;;;;5040904;28;20460;-78
2024/01/15 07:24:07;;;;;;;2.80;2.50;;;20.90;50.60;;;;;;5048750;28;20464;-81
2024/01/15 07:26:36;;;;;;;3.30;3.00;;;20.90;50.60;;;;;;5043668;28;20463;-82
2024/01/15 07:29:04;;;;;;;2.77;2.57;;;20.90;49.90;;;;;;5042385;28;20795;-81
2024/01/15 07:31:32;;;;;;;2.50;2.20;;;20.90;50.00;;;;;;5039015;28;20455;-83
2024/01/15 07:34:01;;;;;;;4.03;2.73;;;20.90;50.40;;;;;;5033242;28;20941;-79
2024/01/15 07:36:31;;;;;;;2.60;2.40;;;20.90;50.10;;;;;;5039950;28;20476;-77
2024/01/15 07:39:01;;;;;;;2.90;2.07;;;20.90;50.70;;;;;;5036552;28;20461;-81
2024/01/15 07:41:29;;;;;;;2.27;2.07;;;20.90;50.80;;;;;;5039440;28;20465;-83
2024/01/15 07:43:58;;;;;;;5.00;2.90;;;20.90;50.70;;;;;;5074925;28;20452;-80
2024/01/15 07:46:26;;;;;;;2.70;2.30;;;20.90;50.30;;;;;;5041900;28;20452;-79
2024/01/15 07:48:56;;;;;;;4.40;3.17;;;21.00;50.50;;;;;;5079136;28;20460;-81
2024/01/15 07:51:24;;;;;;;1.90;1.80;;;21.00;50.30;;;;;;5050816;28;20456;-82
2024/01/15 07:53:55;;;;;;;2.90;2.70;;;21.00;50.40;;;;;;5049641;28;20812;-79
2024/01/15 07:56:23;;;;;;;2.50;2.03;;;21.00;50.30;;;;;;5041269;28;20466;-82
2024/01/15 07:58:51;;;;;;;2.73;2.53;;;21.00;50.30;;;;;;5046099;28;20467;-81
2024/01/15 08:01:20;;;;;;;2.27;2.07;;;21.00;50.40;;;;;;5051510;28;20459;-76
2024/01/15 08:03:49;;;;;;;2.57;2.07;;;21.00;50.40;;;;;;5047261;28;20517;-78
2024/01/15 08:06:17;;;;;;;17.80;2.73;;;21.00;50.40;;;;;;5052571;28;20517;-82
2024/01/15 08:08:46;;;;;;;2.63;2.27;;;21.00;50.50;;;;;;5047943;28;20976;-90
2024/01/15 08:11:15;;;;;;;2.40;2.20;;;21.00;50.40;;;;;;5043864;28;20470;-91
2024/01/15 08:13:45;;;;;;;3.33;2.20;;;21.00;50.10;;;;;;5046471;28;20460;-90
2024/01/15 08:16:13;;;;;;;3.10;2.57;;;21.00;50.40;;;;;;5046149;28;20456;-88
2024/01/15 08:18:43;;;;;;;3.03;2.73;;;21.00;50.50;;;;;;5049005;28;20467;-85
2024/01/15 08:21:12;;;;;;;7.77;2.77;;;21.00;50.50;;;;;;5046513;28;20483;-93
2024/01/15 08:23:41;;;;;;;2.77;2.50;;;21.00;50.30;;;;;;5047464;28;20456;-85
2024/01/15 08:26:09;;;;;;;3.00;2.43;;;21.00;50.30;;;;;;5045409;28;20439;-88
2024/01/15 08:28:39;;;;;;;3.13;2.50;;;21.00;50.10;;;;;;5055155;28;20848;-86
2024/01/15 08:31:07;;;;;;;3.67;2.47;;;21.10;50.30;;;;;;5041255;28;20795;-91
2024/01/15 08:33:36;;;;;;;2.40;2.03;;;21.10;50.10;;;;;;5043014;28;20915;-90
2024/01/15 08:36:05;;;;;;;2.60;2.40;;;21.10;50.20;;;;;;5043750;28;20476;-90
2024/01/15 08:38:33;;;;;;;1.80;1.70;;;21.10;50.10;;;;;;5046209;28;20475;-90
2024/01/15 08:41:02;;;;;;;2.00;1.80;;;21.10;50.10;;;;;;5048386;28;21022;-88
2024/01/15 08:43:30;;;;;;;2.23;2.03;;;21.10;50.00;;;;;;5047156;28;20464;-83
2024/01/15 08:46:00;;;;;;;3.80;2.53;;;21.10;50.00;;;;;;5048173;28;20872;-90
2024/01/15 08:48:29;;;;;;;3.40;2.70;;;21.10;50.00;;;;;;5047761;28;20527;-88
2024/01/15 08:50:57;;;;;;;3.30;2.50;;;21.10;50.00;;;;;;5051859;28;20464;-88
2024/01/15 08:53:25;;;;;;;4.10;2.37;;;21.10;50.00;;;;;;5045438;28;20453;-87
2024/01/15 08:55:54;;;;;;;2.50;2.27;;;21.10;49.90;;;;;;5050527;28;20456;-87
2024/01/15 08:58:24;;;;;;;4.20;2.03;;;21.10;50.00;;;;;;5053545;28;20470;-87
2024/01/15 09:00:52;;;;;;;2.20;2.00;;;21.10;49.70;;;;;;5052343;28;21115;-89
2024/01/15 09:03:22;;;;;;;2.63;1.67;;;21.10;49.80;;;;;;5049844;28;20824;-90
2024/01/15 09:05:50;;;;;;;2.70;2.07;;;21.10;49.80;;;;;;5048669;28;20547;-90
2024/01/15 09:08:19;;;;;;;2.90;2.50;;;21.10;49.50;;;;;;5041931;28;20508;-87
2024/01/15 09:10:47;;;;;;;3.47;2.60;;;21.10;49.40;;;;;;5050656;28;20456;-89
2024/01/15 09:13:16;;;;;;;3.87;2.47;;;21.10;49.60;;;;;;5044951;28;20976;-90
2024/01/15 09:15:44;;;;;;;3.17;2.40;;;21.10;49.10;;;;;;5049006;28;20544;-87
2024/01/15 09:18:13;;;;;;;3.80;2.20;;;21.10;48.70;;;;;;5048610;28;20838;-88
2024/01/15 09:20:43;;;;;;;2.90;2.07;;;21.10;48.60;;;;;;5050768;28;20941;-88
2024/01/15 09:23:12;;;;;;;2.67;2.00;;;21.10;49.50;;;;;;5047876;28;20563;-88
2024/01/15 09:25:41;;;;;;;3.03;2.30;;;21.10;49.30;;;;;;5044088;28;20452;-89
2024/01/15 09:28:09;;;;;;;3.33;2.50;;;21.10;49.60;;;;;;5046980;28;20466;-87
2024/01/15 09:30:37;;;;;;;2.03;1.73;;;21.10;49.10;;;;;;5048696;28;20469;-88
2024/01/15 09:33:06;;;;;;;2.53;2.33;;;21.10;49.50;;;;;;5046747;28;20556;-88
2024/01/15 09:35:34;;;;;;;2.40;1.80;;;21.10;49.50;;;;;;5041147;28;20454;-91
2024/01/15 09:38:05;;;;;;;2.37;1.70;;;21.10;49.20;;;;;;5044113;28;20556;-90
2024/01/15 09:40:34;;;;;;;2.27;2.07;;;21.10;49.50;;;;;;5049439;28;20468;-87
2024/01/15 09:43:03;;;;;;;2.53;2.00;;;21.10;49.50;;;;;;5047808;28;20460;-90
2024/01/15 09:45:32;;;;;;;2.63;2.20;;;21.10;49.50;;;;;;5045785;28;20457;-88
2024/01/15 09:48:00;;;;;;;2.10;1.90;;;21.10;49.50;;;;;;5045828;28;20489;-83
2024/01/15 09:50:29;;;;;;;2.20;2.07;;;21.10;49.30;;;;;;5040731;28;20518;-86
2024/01/15 09:52:58;;;;;;;2.17;2.07;;;21.10;49.50;;;;;;5049157;28;21022;-90
2024/01/15 09:55:29;;;;;;;2.57;2.20;;;21.20;49.50;;;;;;5046960;28;20833;-88
2024/01/15 09:57:58;;;;;;;1.80;1.57;;;21.20;49.50;;;;;;5046850;28;20484;-87
2024/01/15 10:00:27;;;;;;;2.90;2.10;;;21.20;49.50;;;;;;5048522;28;20487;-88
2024/01/15 10:02:56;;;;;;;1.80;1.70;;;21.20;49.40;;;;;;5048673;28;20774;-85
2024/01/15 10:05:24;;;;;;;2.33;1.67;;;21.20;49.40;;;;;;5049930;28;20456;-89
2024/01/15 10:07:54;;;;;;;2.30;2.10;;;21.20;49.30;;;;;;5047012;28;20492;-90
2024/01/15 10:10:22;;;;;;;1.83;1.70;;;21.20;49.40;;;;;;5043949;28;20508;-87
2024/01/15 10:12:52;;;;;;;2.30;2.10;;;21.30;49.10;;;;;;5048742;28;20459;-90
2024/01/15 10:15:23;;;;;;;2.17;2.03;;;21.30;49.00;;;;;;5050029;28;20479;-90
2024/01/15 10:17:52;;;;;;;2.87;2.00;;;21.30;49.30;;;;;;5046972;28;20480;-90
2024/01/15 10:20:22;;;;;;;2.27;1.60;;;21.30;49.00;;;;;;5048225;28;20461;-85
2024/01/15 10:22:52;;;;;;;2.10;1.60;;;21.30;49.20;;;;;;5048214;28;20801;-86
2024/01/15 10:25:24;;;;;;;1.77;1.67;;;21.30;49.20;;;;;;5044389;28;20486;-90
2024/01/15 10:28:02;;;;;;;1.80;1.50;;;21.30;49.20;;;;;;5047295;28;20468;-88
2024/01/15 10:30:32;;;;;;;2.43;2.23;;;21.30;49.10;;;;;;5045929;28;20968;-90
2024/01/15 10:33:02;;;;;;;2.97;2.03;;;21.30;49.10;;;;;;5044014;28;20460;-84
2024/01/15 10:35:32;;;;;;;1.50;1.40;;;21.30;49.00;;;;;;5046943;28;20466;-90
2024/01/15 10:38:00;;;;;;;1.73;1.63;;;21.30;49.10;;;;;;5044649;28;20463;-81
2024/01/15 10:40:29;;;;;;;2.10;1.90;;;21.30;49.00;;;;;;5044725;28;21357;-90
2024/01/15 10:42:57;;;;;;;2.00;1.80;;;21.30;49.10;;;;;;5048540;28;20456;-89
2024/01/15 10:45:26;;;;;;;1.87;1.70;;;21.30;49.00;;;;;;5047587;28;20947;-88
2024/01/15 10:47:58;;;;;;;1.77;1.67;;;21.30;48.80;;;;;;5045269;28;20473;-89
2024/01/15 10:50:28;;;;;;;1.77;1.67;;;21.20;48.60;;;;;;5048043;28;20465;-87
2024/01/15 10:52:57;;;;;;;1.80;1.63;;;21.20;49.10;;;;;;5045278;28;20555;-86
2024/01/15 10:55:26;;;;;;;2.30;2.20;;;21.20;49.00;;;;;;5049106;28;20550;-86
2024/01/15 10:57:56;;;;;;;1.57;1.47;;;21.20;49.20;;;;;;5045388;28;20450;-89
2024/01/15 11:00:27;;;;;;;2.00;1.90;;;21.20;49.20;;;;;;5047258;28;20463;-89
2024/01/15 11:02:56;;;;;;;1.70;1.60;;;21.20;49.30;;;;;;5040793;28;20510;-90
2024/01/15 11:05:25;;;;;;;1.83;1.73;;;21.20;49.30;;;;;;5040901;28;20485;-90
2024/01/15 11:07:56;;;;;;;1.60;1.50;;;21.20;49.20;;;;;;5043139;28;20992;-90
2024/01/15 11:10:41;;;;;;;2.10;1.73;;;21.20;49.20;;;;;;5044736;28;20453;-89
2024/01/15 11:13:11;;;;;;;2.20;1.87;;;21.30;49.20;;;;;;5044508;28;20558;-90
2024/01/15 11:15:57;;;;;;;1.83;1.70;;;21.30;49.10;;;;;;5043532;28;20457;-81
2024/01/15 11:18:28;;;;;;;2.03;1.73;;;21.30;49.10;;;;;;5046852;28;20952;-89
2024/01/15 11:21:26;;;;;;;1.90;1.70;;;21.30;48.90;;;;;;5047888;28;21096;-83
2024/01/15 11:23:57;;;;;;;2.40;2.20;;;21.30;48.80;;;;;;5046551;28;20541;-89
2024/01/15 11:26:35;;;;;;;1.60;1.50;;;21.30;49.00;;;;;;5050285;28;20944;-89
2024/01/15 11:29:05;;;;;;;1.70;1.60;;;21.40;48.70;;;;;;5048079;28;20800;-89
2024/01/15 11:32:01;;;;;;;2.13;2.03;;;21.40;49.00;;;;;;5050485;28;20813;-88
2024/01/15 11:34:52;;;;;;;2.57;1.80;;;21.40;48.80;;;;;;5049050;28;20546;-86
2024/01/15 11:37:23;;;;;;;1.90;1.80;;;21.40;48.90;;;;;;5050628;28;20458;-82
2024/01/15 11:39:53;;;;;;;4.60;1.70;;;21.40;48.70;;;;;;5050063;28;20952;-88
2024/01/15 11:42:23;;;;;;;2.10;1.70;;;21.40;48.50;;;;;;5046769;28;20455;-89
2024/01/15 11:44:51;;;;;;;1.77;1.67;;;21.40;48.50;;;;;;5047947;28;20791;-86
2024/01/15 11:47:56;;;;;;;1.70;1.40;;;21.40;48.80;;;;;;5050242;28;20445;-84
2024/01/15 11:50:27;;;;;;;1.93;1.63;;;21.30;48.90;;;;;;5049239;28;20945;-89
2024/01/15 11:53:01;;;;;;;2.10;1.90;;;21.30;48.70;;;;;;5051981;28;20456;-84
2024/01/15 11:55:36;;;;;;;1.77;1.67;;;21.30;49.00;;;;;;5046538;28;20456;-88
2024/01/15 11:58:09;;;;;;;2.17;2.00;;;21.30;48.70;;;;;;5049057;28;20457;-86
2024/01/15 12:00:41;;;;;;;1.43;1.33;;;21.30;48.70;;;;;;5042860;28;20463;-84
2024/01/15 12:03:11;;;;;;;1.10;1.10;;;21.30;48.80;;;;;;5045808;28;20548;-87
2024/01/15 12:05:41;;;;;;;1.63;1.40;;;21.20;48.80;;;;;;5047153;28;20528;-87
2024/01/15 12:08:11;;;;;;;1.53;1.33;;;21.20;48.60;;;;;;5050179;28;20496;-86
2024/01/15 12:10:40;;;;;;;1.30;1.20;;;21.20;48.60;;;;;;5047103;28;20459;-82
2024/01/15 12:13:12;;;;;;;1.30;1.20;;;21.20;48.80;;;;;;5048563;28;20544;-79
2024/01/15 12:15:42;;;;;;;1.67;1.57;;;21.30;48.90;;;;;;5047168;28;20496;-83
2024/01/15 12:18:13;;;;;;;1.50;1.40;;;21.20;48.90;;;;;;5048643;28;21418;-85
2024/01/15 12:20:43;;;;;;;4.20;1.60;;;21.30;48.90;;;;;;5048615;28;20465;-81
2024/01/15 12:23:13;;;;;;;2.90;1.77;;;21.30;48.60;;;;;;5047996;28;20459;-83
2024/01/15 12:25:41;;;;;;;1.70;1.60;;;21.30;48.90;;;;;;5051449;28;20448;-84
2024/01/15 12:28:10;;;;;;;4.10;1.60;;;21.30;49.00;;;;;;5047386;28;22336;-83
2024/01/15 12:30:39;;;;;;;1.93;1.30;;;21.30;49.00;;;;;;5050443;28;20548;-85
2024/01/15 12:33:08;;;;;;;2.60;1.43;;;21.30;49.10;;;;;;5046758;28;20467;-84
2024/01/15 12:35:39;;;;;;;1.70;1.60;;;21.30;49.00;;;;;;5049776;28;20797;-83
2024/01/15 12:38:07;;;;;;;1.80;1.03;;;21.30;49.10;;;;;;5042532;28;20559;-84
2024/01/15 12:40:35;;;;;;;1.03;1.00;;;21.30;49.10;;;;;;5049183;28;20481;-85
2024/01/15 12:43:07;;;;;;;1.23;1.13;;;21.30;49.00;;;;;;5046828;28;20546;-83
2024/01/15 12:45:35;;;;;;;1.00;1.00;;;21.30;49.00;;;;;;5040832;28;20555;-84
2024/01/15 12:48:05;;;;;;;1.30;1.20;;;21.30;49.00;;;;;;5045441;28;20473;-82
2024/01/15 12:50:35;;;;;;;1.53;1.33;;;21.30;49.30;;;;;;5040432;28;20475;-84
2024/01/15 12:53:05;;;;;;;1.00;0.93;;;21.30;49.40;;;;;;5073760;28;20447;-85
2024/01/15 12:55:34;;;;;;;1.30;1.20;;;21.30;49.30;;;;;;5049972;28;20514;-84
2024/01/15 12:58:02;;;;;;;1.20;1.13;;;21.40;49.20;;;;;;5042792;28;20496;-85
2024/01/15 13:00:31;;;;;;;1.33;1.23;;;21.40;49.00;;;;;;5081064;28;20473;-85
2024/01/15 13:03:00;;;;;;;1.40;1.00;;;21.40;49.00;;;;;;5042491;28;20533;-85